Pagrindinis puslapis
METAR-TAF:

METAR-TAF

Oro uostai :

Matsumoto, Japonija

platuma: 36-10N, ilguma: 137-56E, Aukštis: 668 m

Dabartinis oras

Ataskaita buvo paskelbta 5 valandos ir 47 minutes, ne 07:00 UTC
Vėjas 4 kt iš Šiaurės/Šiaurės Vakarų
Temperatūra 5°C
Drėgmė 41%
Slėgis 1023 hPa
Matomumas 10 km arba daugiau
Mažai debesys ne aukštis 9000 ft
Su prošvaistėmis

METAR: RJAF 130700Z 34004KT 9999 FEW090 BKN/// 05/M07 Q1023

Laikas: 21:47 (12:47 UTC)


TAF: trūkstamas

Orai ataskaitas ir orų prognozės (METAR, TAF).

turimą stotys yra geltonos ir raudonos taškus žemėlapyje.

Perkelti pele per norėdami pamatyti stoties vardą.

Tada spustelėkite, norėdami matyti oro stebėjimo ir prognozės.

Norėdami pakeisti žemėlapį: spustelėkite ant žalios mygtukų su juodo kryžiaus žemyn,; žalią mygtuką su brūkšneliu, jei norite nutolinti; arba žalių rodyklių gretimoms žemėlapius.


METAR-TAF: